Time;durP1;ratioP1;P1;durP2;ratioP2;P2;SDS_P1;SDS_P2;PMS_P1;PMS_P2;Temp;Humidity;BMP_temperature;BMP_pressure;BME280_temperature;BME280_humidity;BME280_pressure;Samples;Min_cycle;Max_cycle;Signal;HPM_P1;HPM_P2
2021/11/19 00:00:12;;;;;;;67.93;33.15;;;11.80;99.90;;;;;;6245702;22;19996;-81
2021/11/19 00:02:38;;;;;;;71.30;32.05;;;11.80;99.90;;;;;;6243952;23;20436;-81
2021/11/19 00:05:05;;;;;;;61.53;33.17;;;11.80;99.90;;;;;;6245443;22;20010;-80
2021/11/19 00:07:31;;;;;;;67.32;33.75;;;11.90;99.90;;;;;;6243851;23;20008;-81
2021/11/19 00:09:57;;;;;;;66.93;33.47;;;11.90;99.90;;;;;;6245507;22;20512;-81
2021/11/19 00:12:24;;;;;;;74.60;35.05;;;11.90;99.90;;;;;;6245277;22;20012;-80
2021/11/19 00:14:49;;;;;;;69.13;33.25;;;11.90;99.90;;;;;;6245619;22;19997;-80
2021/11/19 00:17:16;;;;;;;65.32;33.53;;;11.90;99.90;;;;;;6245491;23;20000;-80
2021/11/19 00:19:44;;;;;;;77.85;35.47;;;11.90;99.90;;;;;;6245499;22;20070;-80
2021/11/19 00:22:13;;;;;;;65.35;32.55;;;11.90;99.90;;;;;;6243851;23;20138;-80
2021/11/19 00:24:40;;;;;;;68.65;34.25;;;11.90;99.90;;;;;;6245461;22;20336;-80
2021/11/19 00:27:10;;;;;;;71.40;34.78;;;11.80;99.90;;;;;;6245591;22;20004;-80
2021/11/19 00:29:37;;;;;;;78.28;34.35;;;11.80;99.90;;;;;;6245450;22;20083;-81
2021/11/19 00:32:03;;;;;;;75.13;36.17;;;11.80;99.90;;;;;;6245476;22;20050;-80
2021/11/19 00:34:30;;;;;;;69.00;35.08;;;11.80;99.90;;;;;;6245662;22;19996;-81
2021/11/19 00:36:58;;;;;;;81.85;35.75;;;11.80;99.90;;;;;;6247347;22;19996;-80
2021/11/19 00:39:25;;;;;;;75.88;34.45;;;11.80;99.90;;;;;;6247465;22;20015;-80
2021/11/19 00:41:51;;;;;;;74.63;36.50;;;11.80;99.90;;;;;;6247332;22;20004;-80
2021/11/19 00:44:17;;;;;;;77.07;35.88;;;11.80;99.90;;;;;;6247345;22;20000;-81
2021/11/19 00:46:44;;;;;;;73.30;35.70;;;11.80;99.90;;;;;;6245714;23;20091;-81
2021/11/19 00:49:11;;;;;;;85.65;36.95;;;11.80;99.90;;;;;;6247335;22;20004;-80
2021/11/19 00:51:40;;;;;;;69.93;34.17;;;11.80;99.90;;;;;;6247168;22;20004;-80
2021/11/19 00:54:07;;;;;;;76.07;34.20;;;11.80;99.90;;;;;;6245741;23;20332;-81
2021/11/19 00:56:36;;;;;;;69.72;33.83;;;11.80;99.90;;;;;;6245627;23;20103;-80
2021/11/19 00:59:03;;;;;;;78.03;36.67;;;11.80;99.90;;;;;;6245703;23;20011;-81
2021/11/19 01:01:43;;;;;;;76.18;36.13;;;11.80;99.90;;;;;;6247243;22;20004;-80
2021/11/19 01:04:10;;;;;;;81.10;38.65;;;11.70;99.90;;;;;;6245515;23;20020;-80
2021/11/19 01:06:37;;;;;;;78.93;36.45;;;11.70;99.90;;;;;;6246999;22;19999;-80
2021/11/19 01:09:07;;;;;;;84.28;38.92;;;11.70;99.90;;;;;;6247244;22;20007;-80
2021/11/19 01:11:33;;;;;;;75.88;36.53;;;11.70;99.90;;;;;;6245292;23;20132;-80
2021/11/19 01:14:01;;;;;;;79.57;37.75;;;11.70;99.90;;;;;;6247011;22;20030;-80
2021/11/19 01:16:32;;;;;;;78.82;37.55;;;11.70;99.90;;;;;;6270921;22;20004;-80
2021/11/19 01:19:04;;;;;;;83.70;38.15;;;11.70;99.90;;;;;;6247107;22;20031;-81
2021/11/19 01:21:45;;;;;;;82.45;39.78;;;11.70;99.90;;;;;;6247076;22;20079;-81
2021/11/19 01:24:11;;;;;;;82.50;39.10;;;11.60;99.90;;;;;;6246975;22;20079;-80
2021/11/19 01:26:40;;;;;;;84.38;38.17;;;11.60;99.90;;;;;;6245285;23;20008;-80
2021/11/19 01:29:12;;;;;;;78.38;38.13;;;11.70;99.90;;;;;;6246983;22;20000;-80
2021/11/19 01:32:06;;;;;;;80.38;37.95;;;11.70;99.90;;;;;;6245290;23;20344;-81
2021/11/19 01:34:32;;;;;;;79.65;38.83;;;11.70;99.90;;;;;;6242766;23;20011;-80
2021/11/19 01:36:58;;;;;;;86.10;38.25;;;11.70;99.90;;;;;;6246826;22;20327;-80
2021/11/19 01:39:27;;;;;;;82.75;37.35;;;11.70;99.90;;;;;;6246786;22;20000;-80
2021/11/19 01:42:04;;;;;;;71.22;36.75;;;11.70;99.90;;;;;;6246780;22;20440;-80
2021/11/19 01:44:40;;;;;;;82.82;39.05;;;11.70;99.90;;;;;;6246875;22;20004;-81
2021/11/19 01:47:09;;;;;;;81.75;37.97;;;11.60;99.90;;;;;;6246606;22;20428;-80
2021/11/19 01:49:36;;;;;;;75.75;37.25;;;11.70;99.90;;;;;;6246605;22;20008;-81
2021/11/19 01:52:09;;;;;;;76.07;37.63;;;11.60;99.90;;;;;;6245012;23;20006;-80
2021/11/19 01:54:50;;;;;;;74.82;35.85;;;11.50;99.90;;;;;;6246790;22;20003;-80
2021/11/19 01:57:31;;;;;;;71.15;33.60;;;11.30;99.90;;;;;;6244823;23;20000;-80
2021/11/19 02:00:18;;;;;;;63.72;33.42;;;11.20;99.90;;;;;;6246684;23;20446;-80
2021/11/19 02:02:48;;;;;;;62.72;32.55;;;11.20;99.90;;;;;;6246487;23;20000;-80
2021/11/19 02:05:22;;;;;;;50.22;26.83;;;11.20;99.90;;;;;;6245037;23;20008;-80
2021/11/19 02:07:51;;;;;;;46.55;26.45;;;11.10;99.90;;;;;;6244831;23;20004;-80
2021/11/19 02:10:27;;;;;;;44.75;25.65;;;11.00;99.90;;;;;;6244952;23;20031;-80
2021/11/19 02:13:06;;;;;;;46.80;26.33;;;10.80;99.90;;;;;;6246196;22;20420;-81
2021/11/19 02:15:38;;;;;;;47.53;25.88;;;10.90;99.90;;;;;;6246302;23;20000;-80
2021/11/19 02:18:27;;;;;;;43.35;24.23;;;10.90;99.90;;;;;;6246550;22;20000;-80
2021/11/19 02:21:06;;;;;;;41.78;25.13;;;10.80;99.90;;;;;;6190327;22;20001;-80
2021/11/19 02:23:43;;;;;;;45.15;25.63;;;10.70;99.90;;;;;;6246550;22;20000;-80
2021/11/19 02:26:19;;;;;;;44.88;25.08;;;10.70;99.90;;;;;;6246373;22;20482;-80
2021/11/19 02:28:47;;;;;;;41.60;23.38;;;10.70;99.90;;;;;;6244854;23;19996;-80
2021/11/19 02:31:28;;;;;;;46.22;25.75;;;10.70;99.90;;;;;;6244654;23;20000;-80
2021/11/19 02:33:58;;;;;;;48.17;26.60;;;10.70;99.90;;;;;;6246313;22;20332;-80
2021/11/19 02:36:43;;;;;;;46.78;26.10;;;10.70;99.90;;;;;;6246219;22;20323;-81
2021/11/19 02:39:18;;;;;;;45.47;25.23;;;10.60;99.90;;;;;;6246286;22;20079;-80
2021/11/19 02:41:48;;;;;;;45.10;25.70;;;10.70;99.90;;;;;;6246231;22;20007;-80
2021/11/19 02:44:20;;;;;;;46.80;26.75;;;10.60;99.90;;;;;;6244672;23;20012;-81
2021/11/19 02:46:50;;;;;;;50.15;26.27;;;10.60;99.90;;;;;;6244490;23;20008;-80
2021/11/19 02:49:16;;;;;;;49.33;25.27;;;10.60;99.90;;;;;;6246265;22;20004;-81
2021/11/19 02:51:45;;;;;;;45.33;25.95;;;10.60;99.90;;;;;;6246046;23;20602;-80
2021/11/19 02:54:14;;;;;;;43.03;25.95;;;10.60;99.90;;;;;;6246092;22;20024;-80
2021/11/19 02:56:41;;;;;;;46.78;25.70;;;10.60;99.90;;;;;;6245979;22;20027;-80
2021/11/19 02:59:08;;;;;;;49.67;25.13;;;10.70;99.90;;;;;;6245754;22;20062;-81
2021/11/19 03:02:08;;;;;;;51.20;25.73;;;10.70;99.90;;;;;;6246033;22;20004;-81
2021/11/19 03:04:41;;;;;;;46.38;25.17;;;10.70;99.90;;;;;;6180295;22;20036;-80
2021/11/19 03:07:08;;;;;;;43.83;24.83;;;10.70;99.90;;;;;;6243153;23;20070;-80
2021/11/19 03:09:38;;;;;;;49.70;26.38;;;10.70;99.90;;;;;;6244336;23;20424;-81
2021/11/19 03:12:07;;;;;;;48.25;26.80;;;10.70;99.90;;;;;;6245735;22;20012;-81
2021/11/19 03:14:34;;;;;;;53.80;25.75;;;10.70;99.90;;;;;;6245919;22;20000;-81
2021/11/19 03:17:01;;;;;;;48.05;26.15;;;10.70;99.90;;;;;;6245825;22;20343;-80
2021/11/19 03:19:28;;;;;;;50.47;26.92;;;10.70;99.90;;;;;;6245880;22;20375;-80
2021/11/19 03:21:54;;;;;;;49.17;26.58;;;10.70;99.90;;;;;;6244326;23;20039;-81
2021/11/19 03:24:21;;;;;;;54.20;28.33;;;10.70;99.90;;;;;;6246001;22;20015;-80
2021/11/19 03:26:48;;;;;;;50.20;27.45;;;10.70;99.90;;;;;;6244278;23;20004;-80
2021/11/19 03:29:15;;;;;;;51.60;27.35;;;10.70;99.90;;;;;;6244229;23;20010;-80
2021/11/19 03:31:42;;;;;;;53.03;26.77;;;10.80;99.90;;;;;;6244080;23;20014;-81
2021/11/19 03:34:10;;;;;;;53.33;26.67;;;10.80;99.90;;;;;;6244164;23;20000;-81
2021/11/19 03:36:38;;;;;;;51.10;27.45;;;10.80;99.90;;;;;;6245825;22;20000;-81
2021/11/19 03:39:05;;;;;;;62.10;27.55;;;10.70;99.90;;;;;;6244198;23;20384;-81
2021/11/19 03:41:34;;;;;;;51.78;27.38;;;10.80;99.90;;;;;;6244228;23;20015;-80
2021/11/19 03:44:22;;;;;;;50.83;27.08;;;10.80;99.90;;;;;;6244131;23;20015;-80
2021/11/19 03:46:50;;;;;;;51.45;27.23;;;10.80;99.90;;;;;;6245658;22;20081;-81
2021/11/19 03:49:17;;;;;;;57.45;29.10;;;10.80;99.90;;;;;;6245761;22;20075;-80
2021/11/19 03:51:56;;;;;;;58.28;28.20;;;10.80;99.90;;;;;;6243904;23;20007;-80
2021/11/19 03:54:24;;;;;;;51.40;26.20;;;10.80;99.90;;;;;;6244061;23;20011;-80
2021/11/19 03:56:51;;;;;;;55.55;26.95;;;10.80;99.90;;;;;;6245474;22;20008;-80
2021/11/19 03:59:16;;;;;;;57.22;26.70;;;10.70;99.90;;;;;;6245635;23;20004;-81
2021/11/19 04:01:45;;;;;;;48.75;26.88;;;10.70;99.90;;;;;;6243962;23;20004;-80
2021/11/19 04:04:13;;;;;;;51.78;26.35;;;10.70;99.90;;;;;;6243879;23;20059;-80
2021/11/19 04:06:40;;;;;;;48.40;24.35;;;10.70;99.90;;;;;;6245140;22;20004;-81
2021/11/19 04:09:06;;;;;;;49.08;24.98;;;10.70;99.90;;;;;;6243691;23;20008;-81
2021/11/19 04:11:32;;;;;;;53.65;25.17;;;10.70;99.90;;;;;;6247372;22;20000;-80
2021/11/19 04:13:58;;;;;;;52.53;24.77;;;10.70;99.90;;;;;;6246265;23;20008;-80
2021/11/19 04:16:34;;;;;;;43.22;22.80;;;10.60;99.90;;;;;;6271541;22;20010;-80
2021/11/19 04:19:00;;;;;;;43.08;20.40;;;10.70;99.90;;;;;;6247619;22;20075;-80
2021/11/19 04:21:28;;;;;;;37.85;18.45;;;10.60;99.90;;;;;;6246049;23;20008;-80
2021/11/19 04:23:57;;;;;;;32.47;15.82;;;10.60;99.90;;;;;;6245936;23;20420;-80
2021/11/19 04:26:26;;;;;;;36.10;17.95;;;10.60;99.90;;;;;;6247492;22;20007;-80
2021/11/19 04:28:53;;;;;;;30.30;15.48;;;10.60;99.90;;;;;;6247530;22;20020;-80
2021/11/19 04:31:19;;;;;;;32.75;16.13;;;10.60;99.90;;;;;;6245969;23;20054;-80
2021/11/19 04:33:46;;;;;;;30.63;15.23;;;10.70;99.90;;;;;;6245965;23;20000;-80
2021/11/19 04:36:12;;;;;;;30.13;15.18;;;10.60;99.90;;;;;;6247459;22;20459;-81
2021/11/19 04:38:38;;;;;;;29.85;15.23;;;10.60;99.90;;;;;;6247368;23;20023;-80
2021/11/19 04:41:06;;;;;;;32.97;16.08;;;10.60;99.90;;;;;;6245882;23;20047;-80
2021/11/19 04:43:32;;;;;;;30.27;14.95;;;10.70;99.90;;;;;;6247330;22;20015;-80
2021/11/19 04:45:59;;;;;;;28.80;14.60;;;10.60;99.90;;;;;;6245716;23;20004;-81
2021/11/19 04:48:26;;;;;;;30.83;14.88;;;10.60;99.90;;;;;;6247347;22;20057;-81
2021/11/19 04:50:53;;;;;;;31.52;15.07;;;10.70;99.90;;;;;;6245765;23;20379;-81
2021/11/19 04:53:22;;;;;;;26.05;13.30;;;10.70;99.90;;;;;;6247190;22;20000;-80
2021/11/19 04:55:49;;;;;;;30.45;15.52;;;10.70;99.90;;;;;;6245607;23;20007;-81
2021/11/19 04:58:15;;;;;;;28.98;14.13;;;10.70;99.90;;;;;;6245629;23;20483;-80
2021/11/19 05:00:46;;;;;;;26.45;13.60;;;10.70;99.90;;;;;;6247207;22;20004;-81
2021/11/19 05:03:13;;;;;;;26.83;13.87;;;10.70;99.90;;;;;;6247326;22;20079;-80
2021/11/19 05:05:40;;;;;;;31.05;13.23;;;10.70;99.90;;;;;;6245444;23;20332;-81
2021/11/19 05:08:08;;;;;;;26.55;13.00;;;10.70;99.90;;;;;;6247230;22;20004;-81
2021/11/19 05:10:35;;;;;;;24.70;12.63;;;10.70;99.90;;;;;;6247083;22;20008;-80
2021/11/19 05:13:02;;;;;;;26.85;14.07;;;10.70;99.90;;;;;;6245299;23;20013;-80
2021/11/19 05:15:30;;;;;;;31.40;13.30;;;10.70;99.90;;;;;;6246942;22;20004;-80
2021/11/19 05:17:56;;;;;;;30.13;14.43;;;10.70;99.90;;;;;;6245502;23;20004;-80
2021/11/19 05:20:24;;;;;;;29.35;12.93;;;10.70;99.90;;;;;;6246680;22;20000;-80
2021/11/19 05:22:51;;;;;;;27.15;13.50;;;10.60;99.90;;;;;;6247137;22;20197;-80
2021/11/19 05:25:20;;;;;;;29.38;14.13;;;10.60;99.90;;;;;;6246792;22;20000;-80
2021/11/19 05:27:46;;;;;;;31.60;14.30;;;10.60;99.90;;;;;;6247026;22;20027;-80
2021/11/19 05:30:13;;;;;;;25.08;12.93;;;10.60;99.90;;;;;;6246907;22;20000;-80
2021/11/19 05:32:39;;;;;;;23.50;12.00;;;10.60;99.90;;;;;;6245327;23;20008;-80
2021/11/19 05:35:07;;;;;;;19.55;10.85;;;10.50;99.90;;;;;;6245337;23;20007;-81
2021/11/19 05:37:32;;;;;;;25.05;11.85;;;10.50;99.90;;;;;;6246797;22;20026;-81
2021/11/19 05:39:59;;;;;;;21.45;10.77;;;10.50;99.90;;;;;;6246615;22;19992;-80
2021/11/19 05:42:25;;;;;;;22.42;9.93;;;10.50;99.90;;;;;;6245299;23;20015;-81
2021/11/19 05:44:51;;;;;;;16.92;9.63;;;10.40;99.90;;;;;;6245272;23;20008;-81
2021/11/19 05:47:17;;;;;;;23.27;11.05;;;10.40;99.90;;;;;;6246751;23;20004;-80
2021/11/19 05:49:43;;;;;;;21.15;10.38;;;10.40;99.90;;;;;;6246812;23;20032;-80
2021/11/19 05:52:10;;;;;;;21.10;10.48;;;10.40;99.90;;;;;;6246570;22;20010;-80
2021/11/19 05:54:37;;;;;;;25.70;10.32;;;10.40;99.90;;;;;;6246518;22;20007;-80
2021/11/19 05:57:06;;;;;;;21.75;10.23;;;10.40;99.90;;;;;;6246489;22;19996;-76
2021/11/19 05:59:32;;;;;;;21.10;10.40;;;10.40;99.90;;;;;;6246696;22;20004;-76
2021/11/19 06:01:58;;;;;;;19.95;10.57;;;10.40;99.90;;;;;;6246922;22;20090;-76
2021/11/19 06:04:24;;;;;;;22.20;10.50;;;10.40;99.90;;;;;;6246676;22;20000;-76
2021/11/19 06:06:50;;;;;;;19.25;10.18;;;10.40;99.90;;;;;;6244582;23;20725;-76
2021/11/19 06:09:26;;;;;;;22.10;11.38;;;10.40;99.90;;;;;;6246481;22;20054;-76
2021/11/19 06:11:55;;;;;;;20.80;10.32;;;10.40;99.90;;;;;;6242939;23;20016;-75
2021/11/19 06:14:27;;;;;;;22.42;10.60;;;10.40;99.90;;;;;;6242899;23;20087;-76
2021/11/19 06:16:58;;;;;;;23.17;11.45;;;10.40;99.90;;;;;;6245088;22;20053;-81
2021/11/19 06:19:27;;;;;;;21.98;10.13;;;10.40;99.90;;;;;;6244829;23;20000;-80
2021/11/19 06:22:03;;;;;;;20.63;9.70;;;10.50;99.90;;;;;;6246389;22;20004;-80
2021/11/19 06:24:34;;;;;;;24.60;10.85;;;10.40;99.90;;;;;;6246183;22;20011;-81
2021/11/19 06:27:00;;;;;;;24.50;11.38;;;10.40;99.90;;;;;;6244625;23;20081;-80
2021/11/19 06:29:26;;;;;;;23.60;11.90;;;10.40;99.90;;;;;;6246393;22;20010;-80
2021/11/19 06:31:55;;;;;;;24.80;11.80;;;10.30;99.90;;;;;;6246068;22;20004;-80
2021/11/19 06:34:21;;;;;;;25.17;11.65;;;10.30;99.90;;;;;;6246184;22;19996;-80
2021/11/19 06:36:47;;;;;;;25.55;11.57;;;10.30;99.90;;;;;;6244651;23;20004;-81
2021/11/19 06:39:17;;;;;;;30.63;12.05;;;10.30;99.90;;;;;;6244527;23;20080;-80
2021/11/19 06:41:43;;;;;;;26.70;12.25;;;10.30;99.90;;;;;;6246031;23;20000;-80
2021/11/19 06:44:10;;;;;;;26.35;12.40;;;10.30;99.90;;;;;;6246079;22;20011;-80
2021/11/19 06:46:36;;;;;;;29.02;12.88;;;10.30;99.90;;;;;;6246038;22;20000;-80
2021/11/19 06:49:04;;;;;;;25.63;12.15;;;10.30;99.90;;;;;;6246275;22;20071;-80
2021/11/19 06:51:30;;;;;;;29.88;12.75;;;10.30;99.90;;;;;;6244482;23;20009;-80
2021/11/19 06:53:56;;;;;;;29.85;12.50;;;10.20;99.90;;;;;;6244641;23;20008;-79
2021/11/19 06:56:22;;;;;;;24.33;11.82;;;10.20;99.90;;;;;;6246034;22;20082;-81
2021/11/19 06:58:49;;;;;;;25.30;12.18;;;10.20;99.90;;;;;;6244365;23;20000;-81
2021/11/19 07:01:15;;;;;;;25.20;12.27;;;10.20;99.90;;;;;;6246084;22;20001;-80
2021/11/19 07:03:41;;;;;;;22.73;11.18;;;10.10;99.90;;;;;;6244212;23;20008;-81
2021/11/19 07:06:07;;;;;;;25.65;11.82;;;10.10;99.90;;;;;;6245993;23;20623;-81
2021/11/19 07:08:33;;;;;;;24.38;11.10;;;10.00;99.90;;;;;;6246015;22;20000;-80
2021/11/19 07:11:02;;;;;;;25.38;11.25;;;10.00;99.90;;;;;;6244354;23;20015;-80
2021/11/19 07:13:28;;;;;;;28.75;12.45;;;10.00;99.90;;;;;;6245192;22;20344;-80
2021/11/19 07:15:54;;;;;;;26.25;11.20;;;10.00;99.90;;;;;;6245683;22;20322;-80
2021/11/19 07:18:22;;;;;;;23.25;11.10;;;10.00;99.90;;;;;;6245681;22;20011;-81
2021/11/19 07:20:49;;;;;;;25.45;10.80;;;10.00;99.90;;;;;;6245700;22;20004;-81
2021/11/19 07:23:15;;;;;;;18.60;9.98;;;10.00;99.90;;;;;;6245620;22;20310;-80
2021/11/19 07:25:41;;;;;;;22.35;11.95;;;9.90;99.90;;;;;;6243724;23;20004;-80
2021/11/19 07:28:10;;;;;;;27.33;12.13;;;10.00;99.90;;;;;;6244098;23;20087;-81
2021/11/19 07:30:45;;;;;;;21.45;11.80;;;10.00;99.90;;;;;;6245605;22;20005;-80
2021/11/19 07:33:11;;;;;;;19.10;10.02;;;10.00;99.90;;;;;;6245716;22;20046;-80
2021/11/19 07:35:38;;;;;;;20.52;11.15;;;10.00;99.90;;;;;;6245641;22;20008;-81
2021/11/19 07:38:06;;;;;;;25.15;11.95;;;10.00;99.90;;;;;;6245842;22;20024;-81
2021/11/19 07:40:35;;;;;;;24.63;10.45;;;10.10;99.90;;;;;;6245731;22;20008;-81
2021/11/19 07:43:01;;;;;;;21.45;10.85;;;10.10;99.90;;;;;;6245784;22;20000;-81
2021/11/19 07:45:33;;;;;;;19.65;10.95;;;10.10;99.90;;;;;;6245542;23;20007;-81
2021/11/19 07:47:58;;;;;;;23.85;10.82;;;10.20;99.90;;;;;;6244144;23;20004;-80
2021/11/19 07:50:26;;;;;;;19.98;10.85;;;10.20;99.90;;;;;;6245631;23;20007;-80
2021/11/19 07:52:52;;;;;;;19.92;10.43;;;10.20;99.90;;;;;;6245579;22;20001;-80
2021/11/19 07:55:18;;;;;;;20.40;10.90;;;10.20;99.90;;;;;;6244117;23;20051;-80
2021/11/19 07:57:44;;;;;;;25.05;11.85;;;10.30;99.90;;;;;;6244233;23;20529;-80
2021/11/19 08:00:16;;;;;;;21.50;10.60;;;10.30;99.90;;;;;;6246079;22;19996;-80
2021/11/19 08:02:41;;;;;;;27.98;12.27;;;10.30;99.90;;;;;;6243873;23;20436;-80
2021/11/19 08:05:07;;;;;;;23.73;11.05;;;10.40;99.90;;;;;;6245323;23;20007;-80
2021/11/19 08:07:34;;;;;;;31.55;11.73;;;10.40;99.90;;;;;;6243915;23;20455;-80
2021/11/19 08:10:01;;;;;;;28.38;12.27;;;10.40;99.90;;;;;;6245446;22;20004;-81
2021/11/19 08:12:27;;;;;;;23.70;11.52;;;10.50;99.90;;;;;;6245105;22;20012;-81
2021/11/19 08:14:53;;;;;;;27.48;12.55;;;10.60;99.90;;;;;;6245519;22;20035;-81
2021/11/19 08:17:40;;;;;;;25.55;12.57;;;10.60;99.90;;;;;;6243981;23;20008;-80
2021/11/19 08:20:08;;;;;;;26.83;12.10;;;10.60;99.90;;;;;;6245639;22;20433;-80
2021/11/19 08:22:35;;;;;;;28.83;13.45;;;10.70;99.90;;;;;;6245651;22;20079;-81
2021/11/19 08:25:02;;;;;;;32.53;13.98;;;10.70;99.90;;;;;;6243953;23;20336;-82
2021/11/19 08:27:34;;;;;;;28.85;12.15;;;10.70;99.90;;;;;;6245644;22;20000;-81
2021/11/19 08:30:04;;;;;;;36.67;14.73;;;10.80;99.90;;;;;;6245525;22;20004;-81
2021/11/19 08:32:30;;;;;;;35.97;15.23;;;10.80;99.90;;;;;;6245221;22;20107;-80
2021/11/19 08:34:56;;;;;;;31.10;14.55;;;10.90;99.90;;;;;;6243806;23;20027;-80
2021/11/19 08:37:25;;;;;;;34.10;15.70;;;10.90;99.90;;;;;;6243894;23;20001;-81
2021/11/19 08:39:51;;;;;;;29.23;13.95;;;11.00;99.90;;;;;;6245380;22;19992;-81
2021/11/19 08:42:19;;;;;;;32.20;16.50;;;11.00;99.90;;;;;;6245368;22;20000;-81
2021/11/19 08:44:46;;;;;;;35.65;16.02;;;11.00;99.90;;;;;;6245482;22;20511;-81
2021/11/19 08:47:13;;;;;;;38.13;17.27;;;11.00;99.90;;;;;;6245313;22;20008;-81
2021/11/19 08:49:39;;;;;;;38.25;16.58;;;11.00;99.90;;;;;;6245467;22;20428;-81
2021/11/19 08:52:08;;;;;;;48.67;19.48;;;11.00;99.90;;;;;;6244787;22;20051;-82
2021/11/19 08:54:35;;;;;;;40.58;20.05;;;11.10;99.90;;;;;;6245134;22;20075;-81
2021/11/19 08:57:10;;;;;;;50.53;21.25;;;11.10;99.90;;;;;;6246501;23;20004;-81
2021/11/19 08:59:39;;;;;;;45.50;21.90;;;11.10;99.90;;;;;;6245269;23;20000;-81
2021/11/19 09:02:09;;;;;;;56.63;22.95;;;11.10;99.90;;;;;;6245622;23;20011;-81
2021/11/19 09:04:35;;;;;;;49.45;23.23;;;11.20;99.90;;;;;;6247204;22;20143;-81
2021/11/19 09:07:03;;;;;;;56.92;23.33;;;11.20;99.90;;;;;;6245437;23;20011;-81
2021/11/19 09:09:30;;;;;;;52.75;23.48;;;11.20;99.90;;;;;;6244568;23;20004;-74
2021/11/19 09:11:56;;;;;;;54.05;23.45;;;11.20;99.90;;;;;;6243713;23;20043;-74
2021/11/19 09:14:24;;;;;;;52.50;23.02;;;11.30;99.90;;;;;;6244647;23;20005;-74
2021/11/19 09:17:14;;;;;;;52.40;23.50;;;11.30;99.90;;;;;;6246356;22;20000;-74
2021/11/19 09:19:52;;;;;;;56.33;24.55;;;11.40;99.90;;;;;;6244674;23;20018;-74
2021/11/19 09:22:47;;;;;;;57.55;25.65;;;11.40;99.90;;;;;;6246271;23;20001;-74
2021/11/19 09:25:16;;;;;;;53.85;23.92;;;11.40;99.90;;;;;;6232036;23;20011;-74
2021/11/19 09:27:43;;;;;;;55.20;26.75;;;11.40;99.90;;;;;;6243653;23;20040;-74
2021/11/19 09:30:31;;;;;;;57.35;25.95;;;11.40;99.90;;;;;;6244550;23;20082;-74
2021/11/19 09:32:59;;;;;;;49.65;25.95;;;11.40;99.90;;;;;;6246536;22;20011;-74
2021/11/19 09:35:30;;;;;;;50.78;22.88;;;11.50;99.90;;;;;;6246691;22;20000;-75
2021/11/19 09:37:55;;;;;;;47.80;22.25;;;11.50;99.90;;;;;;6246743;22;20001;-74
2021/11/19 09:40:27;;;;;;;49.47;22.23;;;11.50;99.90;;;;;;6246586;22;20016;-75
2021/11/19 09:43:01;;;;;;;41.97;21.80;;;11.50;99.90;;;;;;6246510;22;20004;-74
2021/11/19 09:45:47;;;;;;;43.95;21.70;;;11.50;99.90;;;;;;6246901;23;20011;-74
2021/11/19 09:48:44;;;;;;;47.55;21.45;;;11.50;99.90;;;;;;6246562;23;20054;-74
2021/11/19 09:51:45;;;;;;;50.60;21.67;;;11.50;99.90;;;;;;6245008;23;20086;-74
2021/11/19 09:54:32;;;;;;;51.30;21.77;;;11.50;99.90;;;;;;6124381;23;20013;-74
2021/11/19 09:57:20;;;;;;;49.72;23.95;;;11.50;99.90;;;;;;6234759;23;20012;-75
2021/11/19 10:00:30;;;;;;;46.85;22.02;;;11.50;99.90;;;;;;6244641;23;20027;-74
2021/11/19 10:03:08;;;;;;;51.05;22.20;;;11.60;99.90;;;;;;6189602;22;20079;-74
2021/11/19 10:05:36;;;;;;;49.55;23.02;;;11.60;99.90;;;;;;6244536;23;19996;-74
2021/11/19 10:08:49;;;;;;;49.78;22.15;;;11.60;99.90;;;;;;6246562;23;20000;-74
2021/11/19 10:11:31;;;;;;;50.78;21.10;;;11.70;99.90;;;;;;6124077;23;20001;-74
2021/11/19 10:14:21;;;;;;;47.90;21.30;;;11.70;99.90;;;;;;6066062;23;20094;-74
2021/11/19 10:17:11;;;;;;;54.58;22.30;;;11.70;99.90;;;;;;6185721;23;20062;-74
2021/11/19 10:19:54;;;;;;;49.42;20.60;;;11.70;99.90;;;;;;6215478;23;20444;-74
2021/11/19 10:22:31;;;;;;;47.20;20.00;;;11.70;99.90;;;;;;6189186;23;20375;-74
2021/11/19 10:25:17;;;;;;;46.50;20.85;;;11.80;99.90;;;;;;6215897;23;20467;-74
2021/11/19 10:27:50;;;;;;;41.95;19.80;;;11.80;99.90;;;;;;6189250;23;20366;-74
2021/11/19 10:30:34;;;;;;;35.60;16.90;;;11.80;99.90;;;;;;6189136;23;20012;-74
2021/11/19 10:33:12;;;;;;;30.63;16.88;;;11.90;99.90;;;;;;6215405;23;20000;-74
2021/11/19 10:35:59;;;;;;;33.67;14.43;;;12.00;99.90;;;;;;6215627;23;19997;-74
2021/11/19 10:39:06;;;;;;;29.25;12.35;;;12.00;99.90;;;;;;6215704;23;20004;-74
2021/11/19 10:41:53;;;;;;;24.48;11.07;;;12.10;99.90;;;;;;6215402;23;20024;-74
2021/11/19 10:44:53;;;;;;;16.15;9.45;;;12.10;99.90;;;;;;6215590;23;20000;-75
2021/11/19 10:48:06;;;;;;;22.02;9.30;;;12.20;99.90;;;;;;6188967;23;20011;-74
2021/11/19 10:50:44;;;;;;;12.75;7.53;;;12.30;99.90;;;;;;6148830;23;20008;-75
2021/11/19 10:53:12;;;;;;;15.48;9.00;;;12.30;99.90;;;;;;6215297;23;20349;-74
2021/11/19 10:56:15;;;;;;;24.65;10.52;;;12.30;99.90;;;;;;6215366;23;20023;-74
2021/11/19 10:58:56;;;;;;;19.17;9.27;;;12.30;99.90;;;;;;6215648;23;20027;-74
2021/11/19 11:01:35;;;;;;;16.65;7.22;;;12.40;99.90;;;;;;6188612;23;20001;-75
2021/11/19 11:04:14;;;;;;;12.65;7.45;;;12.40;99.90;;;;;;6215152;23;20020;-75
2021/11/19 11:06:45;;;;;;;11.18;6.75;;;12.40;99.90;;;;;;6215252;23;20421;-74
2021/11/19 11:09:30;;;;;;;12.32;6.80;;;12.50;99.90;;;;;;6215469;23;20008;-74
2021/11/19 11:12:08;;;;;;;15.00;7.18;;;12.50;99.90;;;;;;6222716;23;20008;-74
2021/11/19 11:14:36;;;;;;;11.82;6.78;;;12.50;99.90;;;;;;6245631;22;19996;-74
2021/11/19 11:17:24;;;;;;;17.10;8.23;;;12.50;99.90;;;;;;6245452;22;20020;-74
2021/11/19 11:19:52;;;;;;;18.75;8.20;;;12.50;99.90;;;;;;6243844;23;20008;-75
2021/11/19 11:22:21;;;;;;;17.33;8.48;;;12.60;99.90;;;;;;6245512;22;20030;-74
2021/11/19 11:24:51;;;;;;;17.60;9.50;;;12.60;99.90;;;;;;6245592;22;20305;-74
2021/11/19 11:28:01;;;;;;;15.38;8.98;;;12.70;99.90;;;;;;6244028;23;20019;-74
2021/11/19 11:30:49;;;;;;;16.83;8.75;;;12.70;99.90;;;;;;6218863;23;20480;-74
2021/11/19 11:33:20;;;;;;;18.02;9.07;;;12.70;99.90;;;;;;6224284;22;20008;-74
2021/11/19 11:36:18;;;;;;;9.68;6.68;;;12.80;99.90;;;;;;6245577;22;19996;-74
2021/11/19 11:39:05;;;;;;;9.65;6.57;;;12.80;99.90;;;;;;6244536;23;20004;-74
2021/11/19 11:41:48;;;;;;;27.52;11.30;;;13.00;99.90;;;;;;6243765;23;20412;-74
2021/11/19 11:44:22;;;;;;;23.83;11.80;;;13.10;99.90;;;;;;6244941;23;20010;-74
2021/11/19 11:46:47;;;;;;;34.65;15.93;;;13.20;99.90;;;;;;6244190;22;20071;-74
2021/11/19 11:49:34;;;;;;;25.17;12.88;;;13.20;99.90;;;;;;6243244;23;20032;-75
2021/11/19 11:52:03;;;;;;;11.93;6.88;;;13.30;99.90;;;;;;6243181;23;20004;-75
2021/11/19 11:55:12;;;;;;;16.30;8.48;;;13.40;99.90;;;;;;6245285;22;20034;-74
2021/11/19 11:58:03;;;;;;;15.75;8.77;;;13.40;99.90;;;;;;6243790;23;20004;-74
2021/11/19 12:00:59;;;;;;;11.07;7.30;;;13.40;99.90;;;;;;6245462;22;20066;-74
2021/11/19 12:03:45;;;;;;;40.08;18.02;;;13.50;99.90;;;;;;6245489;22;20007;-75
2021/11/19 12:06:22;;;;;;;45.67;21.17;;;13.50;99.90;;;;;;6243777;23;20000;-74
2021/11/19 12:08:56;;;;;;;50.75;22.85;;;13.50;99.90;;;;;;6245749;22;20008;-74
2021/11/19 12:11:57;;;;;;;50.70;22.70;;;13.40;99.90;;;;;;6243437;23;20047;-75
2021/11/19 12:14:44;;;;;;;52.50;22.08;;;13.40;99.90;;;;;;6245370;23;20046;-74
2021/11/19 12:17:30;;;;;;;62.47;26.02;;;13.40;99.90;;;;;;6243573;23;20083;-75
2021/11/19 12:20:03;;;;;;;68.38;26.98;;;13.30;99.90;;;;;;6245486;22;20027;-74
2021/11/19 12:22:31;;;;;;;59.10;26.10;;;13.30;99.90;;;;;;6245552;22;20481;-74
2021/11/19 12:25:36;;;;;;;62.17;25.30;;;13.30;99.90;;;;;;6245232;23;20007;-75
2021/11/19 12:28:12;;;;;;;66.25;26.63;;;13.30;99.90;;;;;;6245134;22;20039;-74
2021/11/19 12:31:01;;;;;;;69.57;27.75;;;13.30;99.90;;;;;;6245836;23;20004;-74
2021/11/19 12:33:34;;;;;;;74.68;28.95;;;13.30;99.90;;;;;;6230565;23;20008;-74
2021/11/19 12:36:03;;;;;;;69.95;27.80;;;13.20;99.90;;;;;;6246991;22;20001;-74
2021/11/19 12:38:32;;;;;;;77.10;29.20;;;13.20;99.90;;;;;;6245677;23;20005;-74
2021/11/19 12:41:19;;;;;;;70.55;26.45;;;13.30;99.90;;;;;;6245739;23;20310;-75
2021/11/19 12:43:54;;;;;;;65.72;28.92;;;13.30;99.90;;;;;;6247158;23;20083;-74
2021/11/19 12:46:43;;;;;;;68.45;28.77;;;13.30;99.90;;;;;;6246922;23;20007;-74
2021/11/19 12:49:46;;;;;;;64.70;25.05;;;13.30;99.90;;;;;;6187914;22;20454;-74
2021/11/19 12:52:51;;;;;;;63.80;25.67;;;13.30;99.90;;;;;;6245088;23;20008;-74
2021/11/19 12:55:25;;;;;;;62.33;25.42;;;13.40;99.90;;;;;;6244929;23;20046;-75